• Join FlightAware (Why Join?)
  • Login
  • US Flag 
06:57PM EDT


 

Airport Tracker/Info


-or-


 

Live Flight TrackerFlight Track Log ✈ DAL110 ✈ 12-Sep-2013 ✈ SAEZ / EZE - KATL

Flight Track Log - Related Links

Times and Time Zones

All times are in EDT time to prevent confusion due to time zone crossing. See the DAL110 flight status page for this flight to view local times or setup timezone preferences in your user account.

Time Position Orientation Groundspeed Altitude Reporting Facility
EDT Latitude Longitude Course Direction KTS MPH feet Rate Location/Type
07:56PM -33.6240 -59.6240 315° West 374 430 32,000  Level FlightAware
07:57PM -33.6160 -59.6360 309° West 375 432 32,000  Level FlightAware
07:57PM -33.6060 -59.6500 311° West 375 432 32,000  Level FlightAware
07:57PM -33.5940 -59.6680 309° West 375 432 32,000  Level FlightAware
07:57PM -33.5840 -59.6820 311° West 377 434 32,000  Level FlightAware
07:57PM -33.5760 -59.6940 309° West 376 433 32,000  Level FlightAware
07:57PM -33.5750 -59.6950 320° Northwest 376 433 32,000  Level FlightAware
07:57PM -33.5520 -59.7200 318° Northwest 380 437 32,000  Level FlightAware
07:58PM -33.5370 -59.7310 329° Northwest 384 442 32,000  Level FlightAware
07:58PM -33.5310 -59.7360 325° Northwest 384 442 32,000  Level FlightAware
07:58PM -33.5230 -59.7410 332° Northwest 392 451 32,000  Level FlightAware
07:58PM -33.4970 -59.7570 333° Northwest 398 458 32,000  Level FlightAware
07:58PM -33.4890 -59.7620 332° Northwest 399 459 32,000  Level FlightAware
07:58PM -33.4720 -59.7730 332° Northwest 399 459 32,000  Level FlightAware
07:58PM -33.4580 -59.7820 332° Northwest 398 458 32,000  Level FlightAware
07:59PM -33.4390 -59.7910 338° Northwest 394 453 32,000  Level FlightAware
07:59PM -33.4320 -59.7940 340° North 394 453 32,000  Level FlightAware
07:59PM -33.4110 -59.8010 344° North 415 478 32,000  Level FlightAware
07:59PM -33.3860 -59.8100 343° North 409 471 32,000  Level FlightAware
07:59PM -33.3750 -59.8140 343° North 409 471 32,000  Level FlightAware
07:59PM -33.3590 -59.8210 340° North 410 472 32,000  Level FlightAware
08:00PM -33.3420 -59.8270 344° North 411 473 32,000  Level FlightAware
08:00PM -33.3370 -59.8290 342° North 411 473 32,000  Level FlightAware
08:00PM -33.3240 -59.8340 342° North 412 474 32,000  Level FlightAware
08:02PM -33.0983 -59.9402 338° Northwest  Level Estimated
08:03PM -32.9729 -59.9990 339° North  Level Estimated
08:04PM -32.8474 -60.0576 339° North  Level Estimated
08:05PM -32.7220 -60.1160 339° North  Level Estimated
08:06PM -32.5965 -60.1743 339° North  Level Estimated
08:07PM -32.4709 -60.2324 339° North  Level Estimated
08:08PM -32.3454 -60.2904 339° North  Level Estimated
08:09PM -32.2198 -60.3481 339° North  Level Estimated
08:10PM -32.0942 -60.4058 339° North  Level Estimated
08:11PM -31.9685 -60.4632 339° North  Level Estimated
08:12PM -31.8429 -60.5205 339° North  Level Estimated
08:13PM -31.7172 -60.5777 339° North  Level Estimated
08:14PM -31.5914 -60.6347 339° North  Level Estimated
08:15PM -31.4657 -60.6916 339° North  Level Estimated
08:16PM -31.3527 -60.7425 339° North  Level Estimated
08:17PM -31.2397 -60.7933 339° North  Level Estimated
08:18PM -31.1266 -60.8441 339° North  Level Estimated
08:19PM -31.0136 -60.8946 339° North  Level Estimated
08:20PM -30.9005 -60.9451 339° North  Level Estimated
08:21PM -30.7874 -60.9955 339° North  Level Estimated
08:22PM -30.6743 -61.0457 339° North  Level Estimated
08:23PM -30.5611 -61.0958 339° North  Level Estimated
08:23PM -30.8700 -61.1700 339° North 423 487 32,000  Level FlightAware
08:23PM -30.8560 -61.1810 326° Northwest 423 487 32,000  Level FlightAware
08:24PM -30.8180 -61.2090 328° Northwest 423 487 32,000  Level FlightAware
08:24PM -30.8010 -61.2220 327° Northwest 423 487 32,000  Level FlightAware
08:24PM -30.7800 -61.2380 327° Northwest 424 488 32,000  Level FlightAware
08:24PM -30.7650 -61.2490 328° Northwest 424 488 32,000  Level FlightAware
08:24PM -30.7500 -61.2600 328° Northwest 424 488 32,000  Level FlightAware
08:24PM -30.7480 -61.2610 337° Northwest 424 488 32,000  Level FlightAware
08:24PM -30.7370 -61.2690 328° Northwest 424 488 32,000  Level FlightAware
08:25PM -30.7020 -61.2960 326° Northwest 424 488 32,000  Level FlightAware
08:25PM -30.6850 -61.3080 329° Northwest 424 488 32,000  Level FlightAware
08:25PM -30.6680 -61.3210 327° Northwest 424 488 32,000  Level FlightAware
08:25PM -30.6510 -61.3340 327° Northwest 424 488 32,000  Level FlightAware
08:26PM -30.6340 -61.3460 329° Northwest 424 488 32,000  Level FlightAware
08:26PM -30.6010 -61.3690 329° Northwest 423 487 32,000  Level FlightAware
08:26PM -30.5940 -61.3740 328° Northwest 423 487 32,000  Level FlightAware
08:26PM -30.5860 -61.3810 323° Northwest 422 486 32,000  Level FlightAware
08:26PM -30.5690 -61.3930 329° Northwest 423 487 32,000  Level FlightAware
08:26PM -30.5580 -61.4010 328° Northwest 423 487 32,000  Level FlightAware
08:26PM -30.5440 -61.4110 328° Northwest 423 487 32,000  Level FlightAware
08:26PM -30.5310 -61.4210 326° Northwest 424 488 32,000  Level FlightAware
08:27PM -30.5160 -61.4330 325° Northwest 424 488 32,000  Level FlightAware
08:27PM -30.5100 -61.4380 324° Northwest 424 488 32,000  Level FlightAware
08:27PM -30.4960 -61.4470 331° Northwest 424 488 32,000  Level FlightAware
08:27PM -30.4830 -61.4570 326° Northwest 423 487 32,000  Level FlightAware
08:27PM -30.4760 -61.4610 334° Northwest 424 488 32,000  Level FlightAware
08:27PM -30.4660 -61.4690 325° Northwest 424 488 32,000  Level FlightAware
08:27PM -30.4480 -61.4820 328° Northwest 424 488 32,000  Level FlightAware
08:27PM -30.4300 -61.4960 326° Northwest 424 488 32,000  Level FlightAware
08:28PM -30.4150 -61.5070 328° Northwest 424 488 32,000  Level FlightAware
08:28PM -30.4030 -61.5150 330° Northwest 423 487 32,000  Level FlightAware
08:28PM -30.3970 -61.5200 324° Northwest 423 487 32,000  Level FlightAware
08:28PM -30.3900 -61.5250 328° Northwest 424 488 32,000  Level FlightAware
08:28PM -30.3700 -61.5400 327° Northwest 423 487 32,000  Level FlightAware
08:28PM -30.3590 -61.5480 328° Northwest 423 487 32,000  Level FlightAware
08:28PM -30.3450 -61.5580 328° Northwest 423 487 32,000  Level FlightAware
08:28PM -30.3370 -61.5640 327° Northwest 423 487 32,000  Level FlightAware
08:29PM -30.3240 -61.5740 326° Northwest 424 488 32,000  Level FlightAware
08:29PM -30.3110 -61.5830 329° Northwest 423 487 32,000  Level FlightAware
08:29PM -30.2970 -61.5930 328° Northwest 424 488 32,000  Level FlightAware
08:29PM -30.2940 -61.5950 330° Northwest 424 488 32,000  Level FlightAware
08:29PM -30.2770 -61.6080 327° Northwest 423 487 32,000  Level FlightAware
08:29PM -30.2640 -61.6180 326° Northwest 424 488 32,000  Level FlightAware
08:29PM -30.2510 -61.6270 329° Northwest 423 487 32,000  Level FlightAware
08:29PM -30.2440 -61.6320 328° Northwest 424 488 32,000  Level FlightAware
08:29PM -30.2320 -61.6410 327° Northwest 423 487 32,000  Level FlightAware
08:30PM -30.2180 -61.6510 328° Northwest 424 488 32,000  Level FlightAware
08:30PM -30.2030 -61.6620 328° Northwest 424 488 32,000  Level FlightAware
08:30PM -30.1980 -61.6670 319° Northwest 424 488 32,000  Level FlightAware
08:30PM -30.1830 -61.6780 328° Northwest 424 488 32,000  Level FlightAware
08:30PM -30.1740 -61.6830 334° Northwest 425 489 32,000  Level FlightAware
08:30PM -30.1630 -61.6920 325° Northwest 425 489 32,000  Level FlightAware
08:30PM -30.1490 -61.7020 328° Northwest 425 489 32,000  Level FlightAware
08:30PM -30.1430 -61.7060 330° Northwest 425 489 32,000  Level FlightAware
08:31PM -30.1240 -61.7190 329° Northwest 425 489 32,000  Level FlightAware
08:31PM -30.1160 -61.7260 323° Northwest 425 489 32,000  Level FlightAware
08:31PM -30.1040 -61.7350 327° Northwest 425 489 32,000  Level FlightAware
08:31PM -30.0670 -61.7630 327° Northwest 425 489 32,000  Level FlightAware
08:31PM -30.0500 -61.7760 326° Northwest 425 489 32,000  Level FlightAware
08:32PM -30.0330 -61.7880 329° Northwest 425 489 32,000  Level FlightAware
08:32PM -30.0160 -61.8010 326° Northwest 425 489 32,000  Level FlightAware
08:32PM -29.9990 -61.8140 326° Northwest 425 489 32,000  Level FlightAware
08:32PM -29.9820 -61.8260 329° Northwest 425 489 32,000  Level FlightAware
08:32PM -29.9640 -61.8400 326° Northwest 425 489 32,000  Level FlightAware
08:33PM -29.9470 -61.8520 329° Northwest 425 489 32,000  Level FlightAware
08:33PM -29.9310 -61.8650 325° Northwest 425 489 32,000  Level FlightAware
08:33PM -29.9140 -61.8780 326° Northwest 425 489 32,000  Level FlightAware
08:33PM -29.8970 -61.8900 329° Northwest 425 489 32,000  Level FlightAware
08:33PM -29.8800 -61.9030 326° Northwest 425 489 32,000  Level FlightAware
08:34PM -29.8630 -61.9150 329° Northwest 425 489 32,000  Level FlightAware
08:34PM -29.8460 -61.9280 326° Northwest 425 489 32,000  Level FlightAware
08:34PM -29.8300 -61.9410 325° Northwest 425 489 32,000  Level FlightAware
08:34PM -29.8130 -61.9530 329° Northwest 425 489 32,000  Level FlightAware
08:34PM -29.7960 -61.9660 326° Northwest 425 489 32,000  Level FlightAware
08:35PM -29.7790 -61.9780 329° Northwest 425 489 32,000  Level FlightAware
08:35PM -29.7620 -61.9910 326° Northwest 425 489 32,000  Level FlightAware
08:35PM -29.7460 -62.0040 325° Northwest 425 489 32,000  Level FlightAware
08:35PM -29.7290 -62.0160 328° Northwest 425 489 32,000  Level FlightAware
08:35PM -29.7110 -62.0300 326° Northwest 425 489 32,000  Level FlightAware
08:36PM -29.6940 -62.0420 328° Northwest 425 489 32,000  Level FlightAware
08:36PM -29.6770 -62.0550 326° Northwest 425 489 32,000  Level FlightAware
08:36PM -29.6600 -62.0670 328° Northwest 425 489 32,000  Level FlightAware
08:36PM -29.6430 -62.0800 326° Northwest 425 489 32,000  Level FlightAware
08:36PM -29.6260 -62.0930 326° Northwest 425 489 32,000  Level FlightAware
08:37PM -29.6100 -62.1050 327° Northwest 425 489 32,000  Level FlightAware
08:37PM -29.5930 -62.1180 326° Northwest 425 489 32,000  Level FlightAware
08:37PM -29.5760 -62.1300 328° Northwest 425 489 32,000  Level FlightAware
08:37PM -29.5590 -62.1430 326° Northwest 425 489 32,000  Level FlightAware
08:37PM -29.5420 -62.1550 328° Northwest 425 489 32,000  Level FlightAware
08:38PM -29.5250 -62.1680 326° Northwest 425 489 32,000  Level FlightAware
08:38PM -29.5090 -62.1800 327° Northwest 425 489 32,000  Level FlightAware
08:38PM -29.2800 -62.0470 27° Northeast 445 512 32,000  Level FlightAware
08:38PM -29.2680 -62.0490 352° North 445 512 32,000  Level FlightAware
08:38PM -29.2580 -62.0520 345° North 445 512 32,000  Level FlightAware
08:39PM -29.2150 -62.0620 349° North 445 512 32,000  Level FlightAware
08:39PM -29.1940 -62.0670 348° North 445 512 32,000  Level FlightAware
08:39PM -29.1740 -62.0720 348° North 445 512 32,000  Level FlightAware
08:39PM -29.1530 -62.0770 348° North 445 512 32,000  Level FlightAware
08:39PM -29.1330 -62.0820 348° North 445 512 32,000  Level FlightAware
08:40PM -29.1120 -62.0870 348° North 445 512 32,000  Level FlightAware
08:40PM -29.0920 -62.0920 348° North 445 512 32,000  Level FlightAware
08:40PM -29.0710 -62.0970 348° North 445 512 32,000  Level FlightAware
08:40PM -29.0510 -62.1020 348° North 445 512 32,000  Level FlightAware
08:40PM -29.0300 -62.1070 348° North 445 512 32,000  Level FlightAware
08:41PM -29.0090 -62.1120 348° North 445 512 32,000  Level FlightAware
08:41PM -28.9890 -62.1170 348° North 445 512 32,000  Level FlightAware
08:41PM -28.9680 -62.1220 348° North 445 512 32,000  Level FlightAware
08:41PM -28.9480 -62.1270 348° North 445 512 32,000  Level FlightAware
08:41PM -28.9270 -62.1320 348° North 445 512 32,000  Level FlightAware
08:42PM -28.9050 -62.1370 349° North 445 512 32,000  Level FlightAware
08:42PM -28.8840 -62.1420 348° North 445 512 32,000  Level FlightAware
08:42PM -28.8640 -62.1470 348° North 445 512 32,000  Level FlightAware
08:42PM -28.8430 -62.1520 348° North 445 512 32,000  Level FlightAware
08:42PM -28.8230 -62.1570 348° North 445 512 32,000  Level FlightAware
08:43PM -28.8010 -62.1630 347° North 445 512 32,000  Level FlightAware
08:43PM -28.7800 -62.1680 348° North 445 512 32,000  Level FlightAware
08:43PM -28.7600 -62.1730 348° North 445 512 32,000  Level FlightAware
08:43PM -28.7390 -62.1780 348° North 445 512 32,000  Level FlightAware
08:43PM -28.7180 -62.1830 348° North 445 512 32,000  Level FlightAware
08:44PM -28.6980 -62.1880 348° North 445 512 32,000  Level FlightAware
08:44PM -28.6770 -62.1930 348° North 445 512 32,000  Level FlightAware
08:44PM -28.6570 -62.1980 348° North 445 512 32,000  Level FlightAware
08:44PM -28.6360 -62.2030 348° North 445 512 32,000  Level FlightAware
08:44PM -28.6160 -62.2080 348° North 445 512 32,000  Level FlightAware
08:45PM -28.5950 -62.2130 348° North 445 512 32,000  Level FlightAware
08:45PM -28.5750 -62.2180 348° North 445 512 32,000  Level FlightAware
08:45PM -28.5540 -62.2230 348° North 445 512 32,000  Level FlightAware
08:45PM -28.5340 -62.2270 350° North 445 512 32,000  Level FlightAware
08:45PM -28.5130 -62.2320 348° North 445 512 32,000  Level FlightAware
08:46PM -28.4920 -62.2370 348° North 445 512 32,000  Level FlightAware
08:46PM -28.4720 -62.2420 348° North 445 512 32,000  Level FlightAware
08:46PM -28.4510 -62.2470 348° North 445 512 32,000  Level FlightAware
08:46PM -28.4310 -62.2520 348° North 445 512 32,000  Level FlightAware
08:46PM -28.4100 -62.2570 348° North 445 512 32,000  Level FlightAware
08:47PM -28.3900 -62.2620 348° North 445 512 32,000  Level FlightAware
08:47PM -28.3690 -62.2670 348° North 445 512 32,000  Level FlightAware
08:47PM -28.3490 -62.2720 348° North 445 512 32,000  Level FlightAware
08:47PM -28.3280 -62.2770 348° North 445 512 32,000  Level FlightAware
08:47PM -28.3080 -62.2820 348° North 445 512 32,000  Level FlightAware
08:48PM -28.2870 -62.2870 348° North 445 512 32,000  Level FlightAware
08:48PM -28.2670 -62.2920 348° North 445 512 32,000  Level FlightAware
08:48PM -28.2460 -62.2970 348° North 445 512 32,000  Level FlightAware
08:48PM -28.2460 -62.2970 340° North 445 512 32,000  Level FlightAware
08:48PM -28.2460 -62.2970 340° North 445 512 32,000  Level FlightAware
08:48PM -28.2460 -62.2970 340° North 445 512 32,000  Level FlightAware
08:48PM -28.2460 -62.2970 340° North 445 512 32,000  Level FlightAware
08:48PM -28.2460 -62.2970 340° North 445 512 32,000  Level FlightAware
08:51PM -27.9497 -62.4203 340° North  Level Estimated
08:53PM -27.7142 -62.5178 340° North  Level Estimated
08:55PM -27.4786 -62.6149 340° North  Level Estimated
08:57PM -27.2429 -62.7116 340° North  Level Estimated
08:59PM -27.0072 -62.8079 340° North  Level Estimated
09:01PM -26.7713 -62.9038 340° North  Level Estimated
09:02PM -26.6534 -62.9515 340° North  Level Estimated
09:03PM -26.5355 -62.9992 340° North  Level Estimated
09:04PM -26.4175 -63.0468 340° North  Level Estimated
09:05PM -26.2995 -63.0943 340° North  Level Estimated
09:06PM -26.1815 -63.1417 340° North  Level Estimated
09:07PM -26.0635 -63.1890 340° North  Level Estimated
09:08PM -25.9455 -63.2362 340° North  Level Estimated
09:09PM -25.8275 -63.2833 340° North  Level Estimated
09:10PM -25.7094 -63.3303 340° North  Level Estimated
09:11PM -25.5914 -63.3773 340° North  Level Estimated
09:12PM -25.4733 -63.4241 340° North  Level Estimated
09:13PM -25.3552 -63.4708 340° North  Level Estimated
09:14PM -25.2371 -63.5175 340° North  Level Estimated
09:15PM -25.1189 -63.5640 340° North  Level Estimated
09:16PM -25.0008 -63.6105 340° North  Level Estimated
09:17PM -24.8827 -63.6569 340° North  Level Estimated
09:18PM -24.7645 -63.7032 340° North  Level Estimated
09:19PM -24.6463 -63.7494 340° North  Level Estimated
09:20PM -24.5281 -63.7955 340° North  Level Estimated
09:21PM -24.4099 -63.8415 340° North  Level Estimated
09:22PM -24.2917 -63.8875 340° North  Level Estimated
09:23PM -24.1734 -63.9333 341° North  Level Estimated
09:24PM -24.0552 -63.9791 341° North  Level Estimated
09:25PM -23.9369 -64.0248 341° North  Level Estimated
09:26PM -23.8186 -64.0704 341° North  Level Estimated
09:27PM -23.7003 -64.1159 341° North  Level Estimated
09:28PM -23.5820 -64.1613 341° North  Level Estimated
09:29PM -23.4637 -64.2067 341° North  Level Estimated
09:30PM -23.3454 -64.2519 341° North  Level Estimated
09:31PM -23.2270 -64.2971 341° North  Level Estimated
09:32PM -23.1087 -64.3422 341° North  Level Estimated
09:33PM -22.9903 -64.3873 341° North  Level Estimated
09:34PM -22.8719 -64.4322 341° North  Level Estimated
09:35PM -22.7535 -64.4771 341° North  Level Estimated
09:36PM -22.6351 -64.5219 341° North  Level Estimated
09:37PM -22.5167 -64.5666 341° North  Level Estimated
09:38PM -22.3983 -64.6113 341° North  Level Estimated
09:39PM -22.2798 -64.6558 341° North  Level Estimated
09:40PM -22.1613 -64.7003 341° North  Level Estimated
09:41PM -22.0429 -64.7447 341° North  Level Estimated
09:42PM -21.9244 -64.7891 341° North  Level Estimated
09:43PM -21.8059 -64.8334 341° North  Level Estimated
09:44PM -21.6874 -64.8775 341° North  Level Estimated
09:45PM -21.5689 -64.9217 341° North  Level Estimated
09:46PM -21.4503 -64.9657 341° North  Level Estimated
09:47PM -21.3318 -65.0097 341° North  Level Estimated
09:48PM -21.2132 -65.0536 341° North  Level Estimated
09:49PM -21.0947 -65.0975 341° North  Level Estimated
09:50PM -20.9761 -65.1412 341° North  Level Estimated
09:51PM -20.8575 -65.1849 341° North  Level Estimated
09:52PM -20.7389 -65.2286 341° North  Level Estimated
09:53PM -20.6203 -65.2721 341° North  Level Estimated
09:54PM -20.5017 -65.3156 341° North  Level Estimated
09:55PM -20.3831 -65.3590 341° North  Level Estimated
09:56PM -20.2644 -65.4024 341° North  Level Estimated
09:57PM -20.1458 -65.4457 341° North  Level Estimated
09:58PM -20.0271 -65.4889 341° North  Level Estimated
09:59PM -19.9084 -65.5321 341° North  Level Estimated
10:00PM -19.7898 -65.5752 341° North  Level Estimated
10:01PM -19.6711 -65.6182 341° North  Level Estimated
10:02PM -19.5524 -65.6612 341° North  Level Estimated
10:03PM -19.4337 -65.7041 341° North  Level Estimated
10:04PM -19.3150 -65.7469 341° North  Level Estimated
10:05PM -19.1962 -65.7897 341° North  Level Estimated
10:06PM -19.0775 -65.8324 341° North  Level Estimated
10:07PM -18.9587 -65.8751 341° North  Level Estimated
10:08PM -18.8400 -65.9177 341° North  Level Estimated
10:09PM -18.7212 -65.9602 341° North  Level Estimated
10:10PM -18.6024 -66.0027 341° North  Level Estimated
10:11PM -18.4836 -66.0451 341° North  Level Estimated
10:12PM -18.3648 -66.0875 341° North  Level Estimated
10:13PM -18.2460 -66.1298 341° North  Level Estimated
10:14PM -18.1272 -66.1720 341° North  Level Estimated
10:15PM -18.0084 -66.2142 341° North  Level Estimated
10:16PM -17.8895 -66.2563 341° North  Level Estimated
10:17PM -17.7707 -66.2984 341° North  Level Estimated
10:18PM -17.6518 -66.3404 341° North  Level Estimated
10:19PM -17.5330 -66.3824 341° North  Level Estimated
10:20PM -17.4141 -66.4243 341° North  Level Estimated
10:21PM -17.2952 -66.4661 341° North  Level Estimated
10:22PM -17.1763 -66.5079 341° North  Level Estimated
10:23PM -17.0574 -66.5497 341° North  Level Estimated
10:24PM -16.9385 -66.5914 341° North  Level Estimated
10:25PM -16.8196 -66.6330 341° North  Level Estimated
10:26PM -16.7007 -66.6746 341° North  Level Estimated
10:27PM -16.5817 -66.7162 341° North  Level Estimated
10:28PM -16.4628 -66.7576 342° North  Level Estimated
10:29PM -16.3438 -66.7991 342° North  Level Estimated
10:30PM -16.2249 -66.8404 342° North  Level Estimated
10:31PM -16.1059 -66.8818 342° North  Level Estimated
10:32PM -15.9869 -66.9231 342° North  Level Estimated
10:33PM -15.8680 -66.9643 342° North  Level Estimated
10:34PM -15.7490 -67.0055 342° North  Level Estimated
10:35PM -15.6300 -67.0466 342° North  Level Estimated
10:36PM -15.5110 -67.0877 342° North  Level Estimated
10:37PM -15.3920 -67.1288 342° North  Level Estimated
10:38PM -15.2730 -67.1697 342° North  Level Estimated
10:39PM -15.1539 -67.2107 342° North  Level Estimated
10:40PM -15.0349 -67.2516 342° North  Level Estimated
10:41PM -14.9158 -67.2925 342° North  Level Estimated
10:42PM -14.7968 -67.3333 342° North  Level Estimated
10:43PM -14.6777 -67.3740 342° North  Level Estimated
10:44PM -14.5587 -67.4148 342° North  Level Estimated
10:45PM -14.4396 -67.4554 342° North  Level Estimated
10:46PM -14.3205 -67.4961 342° North  Level Estimated
10:47PM -14.2015 -67.5367 342° North  Level Estimated
10:48PM -14.0824 -67.5772 342° North  Level Estimated
10:49PM -13.9633 -67.6177 342° North  Level Estimated
10:50PM -13.8442 -67.6582 342° North  Level Estimated
10:51PM -13.7250 -67.6986 342° North  Level Estimated
10:52PM -13.6059 -67.7390 342° North  Level Estimated
10:53PM -13.4868 -67.7793 342° North  Level Estimated
10:54PM -13.3677 -67.8196 342° North  Level Estimated
10:55PM -13.2485 -67.8599 342° North  Level Estimated
10:56PM -13.1294 -67.9001 342° North  Level Estimated
10:57PM -13.0103 -67.9403 342° North  Level Estimated
10:58PM -12.8911 -67.9805 342° North  Level Estimated
10:59PM -12.7719 -68.0206 342° North  Level Estimated
11:00PM -12.6528 -68.0606 342° North  Level Estimated
11:01PM -12.5336 -68.1007 342° North  Level Estimated
11:02PM -12.4144 -68.1407 342° North  Level Estimated
11:03PM -12.2952 -68.1806 342° North  Level Estimated
11:04PM -12.1760 -68.2205 342° North  Level Estimated
11:05PM -12.0568 -68.2604 342° North  Level Estimated
11:06PM -11.9376 -68.3003 342° North  Level Estimated
11:07PM -11.8184 -68.3401 342° North  Level Estimated
11:08PM -11.6992 -68.3799 342° North  Level Estimated
11:09PM -11.5800 -68.4196 342° North  Level Estimated
11:10PM -11.4608 -68.4593 342° North  Level Estimated
11:11PM -11.3415 -68.4990 342° North  Level Estimated
11:12PM -11.2223 -68.5387 342° North  Level Estimated
11:13PM -11.1031 -68.5783 342° North  Level Estimated
11:14PM -10.9838 -68.6179 342° North  Level Estimated
11:15PM -10.8645 -68.6574 342° North  Level Estimated
11:16PM -10.7453 -68.6969 342° North  Level Estimated
11:17PM -10.6260 -68.7364 342° North  Level Estimated
11:18PM -10.5068 -68.7759 342° North  Level Estimated
11:19PM -10.3875 -68.8153 342° North  Level Estimated
11:20PM -10.2682 -68.8547 342° North  Level Estimated
11:21PM -10.1489 -68.8941 342° North  Level Estimated
11:22PM -10.0296 -68.9334 342° North  Level Estimated
11:23PM -9.9103 -68.9727 342° North  Level Estimated
11:24PM -9.7911 -69.0120 342° North  Level Estimated
11:25PM -9.6718 -69.0513 342° North  Level Estimated
11:26PM -9.5525 -69.0905 342° North  Level Estimated
11:27PM -9.4332 -69.1297 342° North  Level Estimated
11:28PM -9.3138 -69.1689 342° North  Level Estimated
11:29PM -9.1945 -69.2080 342° North  Level Estimated
11:30PM -9.0752 -69.2471 342° North  Level Estimated
11:31PM -8.9559 -69.2862 342° North  Level Estimated
11:32PM -8.8365 -69.3253 342° North  Level Estimated
11:33PM -8.7172 -69.3643 342° North  Level Estimated
11:34PM -8.5979 -69.4033 342° North  Level Estimated
11:35PM -8.4785 -69.4423 342° North  Level Estimated
11:36PM -8.3592 -69.4813 342° North  Level Estimated
11:37PM -8.2399 -69.5202 342° North  Level Estimated
11:38PM -8.1205 -69.5591 342° North  Level Estimated
11:39PM -8.0011 -69.5980 342° North  Level Estimated
11:40PM -7.8818 -69.6369 342° North  Level Estimated
11:41PM -7.7624 -69.6757 342° North  Level Estimated
11:42PM -7.6431 -69.7146 342° North  Level Estimated
11:43PM -7.5237 -69.7534 342° North  Level Estimated
11:44PM -7.4043 -69.7922 342° North  Level Estimated
11:45PM -7.2849 -69.8309 342° North  Level Estimated
11:46PM -7.1656 -69.8697 342° North  Level Estimated
11:47PM -7.0462 -69.9084 342° North  Level Estimated
11:48PM -6.9268 -69.9471 342° North  Level Estimated
11:49PM -6.8074 -69.9857 342° North  Level Estimated
11:50PM -6.6880 -70.0244 342° North  Level Estimated
11:51PM -6.5686 -70.0630 342° North  Level Estimated
11:52PM -6.4492 -70.1017 342° North  Level Estimated
11:53PM -6.3298 -70.1403 342° North  Level Estimated
11:54PM -6.2104 -70.1789 342° North  Level Estimated
11:55PM -6.0910 -70.2175 342° North  Level Estimated
11:56PM -5.9716 -70.2560 342° North  Level Estimated
11:57PM -5.8522 -70.2945 342° North  Level Estimated
11:58PM -5.7327 -70.3331 342° North  Level Estimated
11:59PM -5.6133 -70.3716 342° North  Level Estimated
12:00AM -5.4939 -70.4101 342° North  Level Estimated
12:01AM -5.3745 -70.4485 342° North  Level Estimated
12:02AM -5.2551 -70.4870 342° North  Level Estimated
12:03AM -5.1356 -70.5254 342° North  Level Estimated
12:04AM -5.0162 -70.5639 342° North  Level Estimated
12:05AM -4.8968 -70.6023 342° North  Level Estimated
12:06AM -4.7773 -70.6407 342° North  Level Estimated
12:07AM -4.6579 -70.6791 342° North  Level Estimated
12:08AM -4.5385 -70.7175 342° North  Level Estimated
12:09AM -4.4190 -70.7558 342° North  Level Estimated
12:10AM -4.2996 -70.7942 342° North  Level Estimated
12:11AM -4.1801 -70.8325 342° North  Level Estimated
12:12AM -4.0607 -70.8708 342° North  Level Estimated
12:13AM -3.9412 -70.9092 342° North  Level Estimated
12:14AM -3.8218 -70.9475 342° North  Level Estimated
12:15AM -3.7023 -70.9858 342° North  Level Estimated
12:16AM -3.5829 -71.0240 342° North  Level Estimated
12:17AM -3.4634 -71.0623 342° North  Level Estimated
12:18AM -3.3440 -71.1006 342° North  Level Estimated
12:19AM -3.2245 -71.1388 342° North  Level Estimated
12:20AM -3.1051 -71.1771 342° North  Level Estimated
12:21AM -2.9856 -71.2153 342° North  Level Estimated
12:22AM -2.8661 -71.2535 342° North  Level Estimated
12:23AM -2.7467 -71.2918 342° North  Level Estimated
12:24AM -2.6272 -71.3300 342° North  Level Estimated
12:25AM -2.5078 -71.3682 342° North  Level Estimated
12:26AM -2.3883 -71.4064 342° North  Level Estimated
12:27AM -2.2688 -71.4446 342° North  Level Estimated
12:28AM -2.1493 -71.4828 342° North  Level Estimated
12:29AM -2.0299 -71.5210 342° North  Level Estimated
12:30AM -1.9104 -71.5591 342° North  Level Estimated
12:31AM -1.7909 -71.5973 342° North  Level Estimated
12:32AM -1.6715 -71.6355 342° North  Level Estimated
12:33AM -1.5520 -71.6736 342° North  Level Estimated
12:34AM -1.4325 -71.7118 342° North  Level Estimated
12:35AM -1.3131 -71.7499 342° North  Level Estimated
12:36AM -1.1936 -71.7881 342° North  Level Estimated
12:37AM -1.0741 -71.8262 342° North  Level Estimated
12:38AM -0.9546 -71.8643 342° North  Level Estimated
12:39AM -0.8351 -71.9025 342° North  Level Estimated
12:40AM -0.7157 -71.9406 342° North  Level Estimated
12:41AM -0.5962 -71.9788 342° North  Level Estimated
12:42AM -0.4767 -72.0169 342° North  Level Estimated
12:43AM -0.3572 -72.0550 342° North  Level Estimated
12:44AM -0.2377 -72.0931 342° North  Level Estimated
12:45AM -0.1182 -72.1313 342° North  Level Estimated
12:46AM 0.0012 -72.1694 342° North  Level Estimated
12:47AM 0.1207 -72.2075 342° North  Level Estimated
12:48AM 0.2402 -72.2457 342° North  Level Estimated
12:49AM 0.3597 -72.2838 342° North  Level Estimated
12:50AM 0.4791 -72.3219 342° North  Level Estimated
12:51AM 0.5986 -72.3601 342° North  Level Estimated
12:52AM 0.7181 -72.3982 342° North  Level Estimated
12:53AM 0.8376 -72.4363 342° North  Level Estimated
12:54AM 0.9571 -72.4745 342° North  Level Estimated
12:55AM 1.0766 -72.5126 342° North  Level Estimated
12:56AM 1.1960 -72.5508 342° North  Level Estimated
12:57AM 1.3155 -72.5889 342° North  Level Estimated
12:58AM 1.4350 -72.6271 342° North  Level Estimated
12:59AM 1.5545 -72.6652 342° North  Level Estimated
01:00AM 1.6739 -72.7034 342° North  Level Estimated
01:01AM 1.7934 -72.7415 342° North  Level Estimated
01:02AM 1.9129 -72.7797 342° North  Level Estimated
01:03AM 2.0323 -72.8179 342° North  Level Estimated
01:04AM 2.1518 -72.8561 342° North  Level Estimated
01:05AM 2.2713 -72.8942 342° North  Level Estimated
01:06AM 2.3907 -72.9324 342° North  Level Estimated
01:07AM 2.5102 -72.9706 342° North  Level Estimated
01:08AM 2.6297 -73.0089 342° North  Level Estimated
01:09AM 2.7491 -73.0471 342° North  Level Estimated
01:10AM 2.8686 -73.0853 342° North  Level Estimated
01:11AM 2.9881 -73.1235 342° North  Level Estimated
01:12AM 3.1075 -73.1618 342° North  Level Estimated
01:13AM 3.2270 -73.2000 342° North  Level Estimated
01:14AM 3.3464 -73.2383 342° North  Level Estimated
01:15AM 3.4659 -73.2765 342° North  Level Estimated
01:16AM 3.5854 -73.3148 342° North  Level Estimated
01:17AM 3.7048 -73.3531 342° North  Level Estimated
01:18AM 3.8242 -73.3914 342° North  Level Estimated
01:19AM 3.9437 -73.4297 342° North  Level Estimated
01:20AM 4.0631 -73.4680 342° North  Level Estimated
01:21AM 4.1826 -73.5063 342° North  Level Estimated
01:22AM 4.3020 -73.5447 342° North  Level Estimated
01:23AM 4.4215 -73.5830 342° North  Level Estimated
01:24AM 4.5409 -73.6214 342° North  Level Estimated
01:25AM 4.6604 -73.6598 342° North  Level Estimated
01:26AM 4.7798 -73.6981 342° North  Level Estimated
01:27AM 4.8992 -73.7365 342° North  Level Estimated
01:28AM 5.0187 -73.7750 342° North  Level Estimated
01:29AM 5.1381 -73.8134 342° North  Level Estimated
01:30AM 5.2575 -73.8518 342° North  Level Estimated
01:31AM 5.3769 -73.8903 342° North  Level Estimated
01:32AM 5.4964 -73.9288 342° North  Level Estimated
01:33AM 5.6158 -73.9673 342° North  Level Estimated
01:34AM 5.7352 -74.0058 342° North  Level Estimated
01:35AM 5.8546 -74.0443 342° North  Level Estimated
01:36AM 5.9740 -74.0828 342° North  Level Estimated
01:37AM 6.0935 -74.1214 342° North  Level Estimated
01:38AM 6.2129 -74.1600 342° North  Level Estimated
01:39AM 6.3323 -74.1986 342° North  Level Estimated
01:40AM 6.4517 -74.2372 342° North  Level Estimated
01:41AM 6.5711 -74.2758 342° North  Level Estimated
01:42AM 6.6905 -74.3145 342° North  Level Estimated
01:43AM 6.8099 -74.3531 342° North  Level Estimated
01:44AM 6.9292 -74.3918 342° North  Level Estimated
01:45AM 7.0486 -74.4305 342° North  Level Estimated
01:46AM 7.1680 -74.4692 342° North  Level Estimated
01:47AM 7.2874 -74.5079 342° North  Level Estimated
01:48AM 7.4068 -74.5467 342° North  Level Estimated
01:49AM 7.5261 -74.5855 342° North  Level Estimated
01:50AM 7.6455 -74.6243 342° North  Level Estimated
01:51AM 7.7649 -74.6631 342° North  Level Estimated
01:52AM 7.8842 -74.7020 342° North  Level Estimated
01:53AM 8.0036 -74.7409 342° North  Level Estimated
01:54AM 8.1230 -74.7797 342° North  Level Estimated
01:55AM 8.2423 -74.8187 342° North  Level Estimated
01:56AM 8.3617 -74.8576 342° North  Level Estimated
01:57AM 8.4810 -74.8966 342° North  Level Estimated
01:58AM 8.6003 -74.9356 342° North  Level Estimated
01:59AM 8.7197 -74.9746 342° North  Level Estimated
02:00AM 8.8390 -75.0136 342° North  Level Estimated
02:01AM 8.9583 -75.0527 342° North  Level Estimated
02:02AM 9.0777 -75.0918 342° North  Level Estimated
02:03AM 9.1970 -75.1309 342° North  Level Estimated
02:04AM 9.3163 -75.1700 342° North  Level Estimated
02:05AM 9.4356 -75.2092 342° North  Level Estimated
02:06AM 9.5549 -75.2484 342° North  Level Estimated
02:07AM 9.6742 -75.2876 342° North  Level Estimated
02:08AM 9.7935 -75.3269 342° North  Level Estimated
02:09AM 9.9128 -75.3661 342° North  Level Estimated
02:10AM 10.0321 -75.4055 342° North  Level Estimated
02:11AM 10.1514 -75.4448 342° North  Level Estimated
02:12AM 10.2707 -75.4842 342° North  Level Estimated
02:13AM 10.3899 -75.5236 342° North  Level Estimated
02:14AM 10.5092 -75.5630 342° North  Level Estimated
02:15AM 10.6285 -75.6025 342° North  Level Estimated
02:16AM 10.7478 -75.6420 342° North  Level Estimated
02:17AM 10.8670 -75.6815 342° North  Level Estimated
02:18AM 10.9863 -75.7210 342° North  Level Estimated
02:19AM 11.1055 -75.7606 342° North  Level Estimated
02:20AM 11.2247 -75.8002 342° North  Level Estimated
02:21AM 11.3440 -75.8399 342° North  Level Estimated
02:22AM 11.4632 -75.8795 342° North  Level Estimated
02:23AM 11.5824 -75.9193 342° North  Level Estimated
02:24AM 11.7017 -75.9590 342° North  Level Estimated
02:25AM 11.8209 -75.9988 342° North  Level Estimated
02:26AM 11.9401 -76.0386 342° North  Level Estimated
02:27AM 12.0593 -76.0785 342° North  Level Estimated
02:28AM 12.1785 -76.1183 342° North  Level Estimated
02:29AM 12.2977 -76.1583 342° North  Level Estimated
02:30AM 12.4169 -76.1982 342° North  Level Estimated
02:31AM 12.5360 -76.2382 342° North  Level Estimated
02:32AM 12.6552 -76.2783 342° North  Level Estimated
02:33AM 12.7744 -76.3183 342° North  Level Estimated
02:34AM 12.8935 -76.3584 342° North  Level Estimated
02:35AM 13.0127 -76.3986 342° North  Level Estimated
02:36AM 13.1319 -76.4388 342° North  Level Estimated
02:37AM 13.2510 -76.4790 342° North  Level Estimated
02:38AM 13.3701 -76.5193 342° North  Level Estimated
02:39AM 13.4893 -76.5596 342° North  Level Estimated
02:40AM 13.6084 -76.5999 342° North  Level Estimated
02:41AM 13.7275 -76.6403 342° North  Level Estimated
02:42AM 13.8466 -76.6807 342° North  Level Estimated
02:43AM 13.9657 -76.7212 342° North  Level Estimated
02:44AM 14.0848 -76.7617 342° North  Level Estimated
02:45AM 14.2039 -76.8022 342° North  Level Estimated
02:46AM 14.3230 -76.8428 342° North  Level Estimated
02:47AM 14.4421 -76.8835 342° North  Level Estimated
02:48AM 14.5611 -76.9241 342° North  Level Estimated
02:49AM 14.6802 -76.9649 342° North  Level Estimated
02:50AM 14.7992 -77.0056 342° North  Level Estimated
02:51AM 14.9183 -77.0464 342° North  Level Estimated
02:52AM 15.0373 -77.0873 342° North  Level Estimated
02:53AM 15.1564 -77.1282 342° North  Level Estimated
02:54AM 15.2754 -77.1692 342° North  Level Estimated
02:55AM 15.3944 -77.2102 342° North  Level Estimated
02:56AM 15.5134 -77.2512 342° North  Level Estimated
02:57AM 15.6324 -77.2923 342° North  Level Estimated
02:58AM 15.7514 -77.3334 342° North  Level Estimated
02:59AM 15.8704 -77.3746 342° North  Level Estimated
03:00AM 15.9894 -77.4159 342° North  Level Estimated
03:01AM 16.1084 -77.4572 342° North  Level Estimated
03:02AM 16.2273 -77.4985 342° North  Level Estimated
03:03AM 16.3463 -77.5399 342° North  Level Estimated
03:04AM 16.4653 -77.5813 342° North  Level Estimated
03:05AM 16.5842 -77.6228 342° North  Level Estimated
03:06AM 16.7031 -77.6643 342° North  Level Estimated
03:07AM 16.8220 -77.7059 341° North  Level Estimated
03:08AM 16.9410 -77.7476 341° North  Level Estimated
03:09AM 17.0599 -77.7893 341° North  Level Estimated
03:10AM 17.1788 -77.8310 341° North  Level Estimated
03:11AM 17.2977 -77.8728 341° North  Level Estimated
03:12AM 17.4165 -77.9146 341° North  Level Estimated
03:13AM 17.5354 -77.9566 341° North  Level Estimated
03:14AM 17.6543 -77.9985 341° North  Level Estimated
03:15AM 17.7731 -78.0405 341° North  Level Estimated
03:16AM 17.8920 -78.0826 341° North  Level Estimated
03:17AM 18.0108 -78.1247 341° North  Level Estimated
03:18AM 18.1297 -78.1669 341° North  Level Estimated
03:19AM 18.2485 -78.2092 341° North  Level Estimated
03:20AM 18.3673 -78.2515 341° North  Level Estimated
03:21AM 18.4861 -78.2939 341° North  Level Estimated
03:22AM 18.6049 -78.3363 341° North  Level Estimated
03:23AM 18.7236 -78.3788 341° North  Level Estimated
03:24AM 18.8424 -78.4213 341° North  Level Estimated
03:25AM 18.9612 -78.4639 341° North  Level Estimated
03:26AM 19.0799 -78.5066 341° North  Level Estimated
03:27AM 19.1987 -78.5493 341° North  Level Estimated
03:28AM 19.3174 -78.5920 341° North  Level Estimated
03:29AM 19.4361 -78.6349 341° North  Level Estimated
03:30AM 19.5548 -78.6778 341° North  Level Estimated
03:31AM 19.6735 -78.7208 341° North  Level Estimated
03:32AM 19.7922 -78.7638 341° North  Level Estimated
03:33AM 19.9109 -78.8069 341° North  Level Estimated
03:34AM 20.0296 -78.8501 341° North  Level Estimated
03:35AM 20.1482 -78.8933 341° North  Level Estimated
03:36AM 20.2669 -78.9366 341° North  Level Estimated
03:37AM 20.3855 -78.9800 341° North  Level Estimated
03:38AM 20.5042 -79.0234 341° North  Level Estimated
03:39AM 20.6228 -79.0669 341° North  Level Estimated
03:40AM 20.7414 -79.1105 341° North  Level Estimated
03:41AM 20.8600 -79.1541 341° North  Level Estimated
03:42AM 20.9786 -79.1978 341° North  Level Estimated
03:43AM 21.0971 -79.2416 341° North  Level Estimated
03:44AM 21.2157 -79.2854 341° North  Level Estimated
03:45AM 21.3342 -79.3293 341° North  Level Estimated
03:45AM 23.2225 -78.0911 341° North 460 529 32,000  Level Miami Center
03:46AM 21.4528 -79.3733 341° North  Level Estimated
03:46AM 23.3392 -78.1486 336° Northwest 460 529 32,000  Level Miami Center
03:47AM 21.5713 -79.4173 341° North  Level Estimated
03:47AM 23.4514 -78.2019 336° Northwest 452 520 32,000  Level Miami Center
03:48AM 21.6898 -79.4615 341° North  Level Estimated
03:48AM 23.5681 -78.2600 335° Northwest 452 520 32,000  Level Miami Center
03:49AM 21.8083 -79.5057 341° North  Level Estimated
03:49AM 23.6825 -78.3086 339° North 452 520 32,000  Level Miami Center
03:50AM 21.9268 -79.5499 341° North  Level Estimated
03:50AM 23.7969 -78.3622 337° Northwest 457 526 32,000  Level Miami Center
03:51AM 23.9175 -78.4228 335° Northwest 457 526 32,000  Level Miami Center
03:52AM 24.0297 -78.4742 337° Northwest 450 518 32,000  Level Miami Center
03:53AM 24.1483 -78.5281 337° Northwest 450 518 32,000  Level Miami Center
03:54AM 24.2647 -78.5822 337° Northwest 455 524 32,000  Level Miami Center
03:55AM 24.3872 -78.6361 338° Northwest 461 531 32,000  Level Miami Center
03:56AM 24.4892 -78.6833 337° Northwest 455 524 32,000  Level Miami Center
03:57AM 24.6097 -78.7378 338° Northwest 456 525 32,000  Level Miami Center
03:58AM 24.7239 -78.7897 338° Northwest 456 525 32,000  Level Miami Center
03:59AM 24.8422 -78.8442 337° Northwest 461 531 32,000  Level Miami Center
04:00AM 24.9608 -78.8989 337° Northwest 455 524 32,000  Level Miami Center
04:01AM 25.0769 -78.9489 339° North 455 524 32,000  Level Miami Center
04:02AM 25.1953 -79.0039 337° Northwest 455 524 32,000  Level Miami Center
04:03AM 25.3136 -79.0589 337° Northwest 455 524 32,000  Level Miami Center
04:04AM 25.4319 -79.1114 338° Northwest 455 524 32,000  Level Miami Center
04:05AM 25.5503 -79.1667 337° Northwest 455 524 32,000  Level Miami Center
04:06AM 25.6642 -79.2219 336° Northwest 455 524 32,000  Level Miami Center
04:07AM 25.7717 -79.2908 330° Northwest 445 512 32,000  Level Miami Center
04:08AM 25.8811 -79.3808 324° Northwest 445 512 32,000  Level Miami Center
04:09AM 25.9694 -79.4589 322° Northwest 450 518 32,000  Level Miami Center
04:10AM 26.0703 -79.5422 323° Northwest 457 526 32,000  Level Miami Center
04:11AM 26.1711 -79.6278 323° Northwest 457 526 32,000  Level Miami Center
04:12AM 26.2781 -79.7114 325° Northwest 447 514 32,000  Level Miami Center
04:13AM 26.3772 -79.7739 331° Northwest 442 509 32,000  Level Miami Center
04:14AM 26.4969 -79.8467 331° Northwest 442 509 32,000  Level Miami Center
04:15AM 26.5958 -79.9094 330° Northwest 447 514 32,000  Level Miami Center
04:16AM 26.7175 -79.9756 334° Northwest 447 514 32,000  Level Miami Center
04:17AM 26.8356 -80.0228 340° North 441 507 32,000  Level Miami Center
04:18AM 26.9514 -80.0725 339° North 441 507 32,000  Level Miami Center
04:19AM 27.0467 -80.1103 341° North 448 516 32,000  Level Miami Center
04:20AM 27.1728 -80.1675 338° Northwest 448 516 32,000  Level Miami Center
04:21AM 27.2886 -80.2150 340° North 448 516 32,000  Level Miami Center
04:22AM 27.4044 -80.2606 341° North 443 510 32,000  Level Miami Center
04:23AM 27.5222 -80.3108 339° North 443 510 32,000  Level Miami Center
04:24AM 27.6403 -80.3589 340° North 443 510 32,000  Level Miami Center
04:25AM 27.7517 -80.4047 340° North 443 510 32,000  Level Miami Center
04:26AM 27.8778 -80.4556 340° North 438 504 32,000  Level Miami Center
04:27AM 27.9914 -80.5061 339° North 432 497 32,000  Level Miami Center
04:28AM 28.1050 -80.5522 340° North 427 491 32,000  Level Miami Center
04:29AM 28.2164 -80.5983 340° North 427 491 32,000  Level Miami Center
04:30AM 28.3319 -80.6492 339° North 432 497 32,000  Level Miami Center
04:31AM 28.4433 -80.6956 340° North 427 491 32,000  Level Miami Center
04:34AM 28.8078 -80.8478 340° North 420 483 32,000  Level Jacksonville Center
04:35AM 28.9192 -80.8975 339° North 426 490 32,000  Level Jacksonville Center
04:36AM 29.0306 -80.9453 339° North 426 490 32,000  Level Jacksonville Center
04:37AM 29.1417 -80.9931 339° North 432 497 32,000  Level Jacksonville Center
04:38AM 29.2531 -81.0408 339° North 432 497 32,000  Level Jacksonville Center
04:39AM 29.3625 -81.0936 337° Northwest 432 497 32,000  Level Jacksonville Center
04:40AM 29.4697 -81.1536 334° Northwest 427 491 32,000  Level Jacksonville Center
04:41AM 29.5689 -81.2258 328° Northwest 421 484 32,000  Level Jacksonville Center
04:42AM 29.6700 -81.2983 328° Northwest 421 484 32,000  Level Jacksonville Center
04:43AM 29.7731 -81.3683 329° Northwest 426 490 32,000  Level Jacksonville Center
04:44AM 29.8742 -81.4386 329° Northwest 432 497 32,000  Level Jacksonville Center
04:45AM 29.9792 -81.5114 329° Northwest 432 497 32,000  Level Jacksonville Center
04:46AM 30.0822 -81.5819 329° Northwest 432 497 32,000  Level Jacksonville Center
04:47AM 30.1875 -81.6575 328° Northwest 432 497 32,000  Level Jacksonville Center
04:48AM 30.2883 -81.7233 331° Northwest 432 497 32,000  Level Jacksonville Center
04:49AM 30.3808 -81.7897 328° Northwest 427 491 32,000  Level Jacksonville Center
04:50AM 30.4836 -81.8633 328° Northwest 433 498 32,000  Level Jacksonville Center
04:51AM 30.5908 -81.9417 328° Northwest 441 507 32,000  Level Jacksonville Center
04:52AM 30.6914 -82.0156 328° Northwest 441 507 32,000  Level Jacksonville Center
04:53AM 30.7922 -82.0872 329° Northwest 436 502 32,000  Level Jacksonville Center
04:54AM 30.8950 -82.1592 329° Northwest 436 502 32,000  Level Jacksonville Center
04:55AM 30.9956 -82.2333 328° Northwest 436 502 32,000  Level Jacksonville Center
04:56AM 31.0983 -82.3078 328° Northwest 436 502 32,000  Level Jacksonville Center
04:57AM 31.1989 -82.3778 329° Northwest 436 502 32,000  Level Jacksonville Center
05:00AM 31.4561 -82.5636 328° Northwest 431 496 32,000  Level Atlanta Center
05:01AM 31.5592 -82.6375 329° Northwest 431 496 32,000  Level Atlanta Center
05:02AM 31.6622 -82.7092 329° Northwest 431 496 32,000  Level Atlanta Center
05:03AM 31.7653 -82.7783 330° Northwest 431 496 32,000  Level Atlanta Center
05:04AM 31.8661 -82.8528 328° Northwest 431 496 32,000  Level Atlanta Center
05:05AM 31.9692 -82.9250 329° Northwest 431 496 32,000  Level Atlanta Center
05:06AM 32.0719 -82.9947 330° Northwest 431 496 32,000  Level Atlanta Center
05:07AM 32.1728 -83.0672 329° Northwest 431 496 32,000  Level Atlanta Center
05:08AM 32.2756 -83.1372 330° Northwest 431 496 32,000  Level Atlanta Center
05:09AM 32.3783 -83.2100 329° Northwest 431 496 32,000 -1,020 Level Atlanta Center
05:10AM 32.4811 -83.2828 329° Northwest 431 496 30,000 -2,400 Descending Atlanta Center
05:11AM 32.5839 -83.3586 328° Northwest 431 496 27,300 -2,220 Descending Atlanta Center
05:12AM 32.6906 -83.4317 330° Northwest 438 504 25,600 -2,160 Descending Atlanta Center
05:13AM 32.7933 -83.5050 329° Northwest 438 504 23,000 -2,580 Descending Atlanta Center
05:14AM 32.8917 -83.5786 328° Northwest 433 498 20,500 -2,520 Descending Atlanta Center
05:15AM 32.9878 -83.6475 329° Northwest 417 480 18,000 -2,460 Descending Atlanta Center
05:16AM 33.0819 -83.7139 329° Northwest 405 466 15,600 -2,340 Descending Atlanta Center
05:17AM 33.1678 -83.7783 328° Northwest 385 443 13,400 -1,800 Descending Atlanta Center
05:18AM 33.2431 -83.8475 322° Northwest 358 412 12,000 -1,200 Descending Atlanta Center
05:19AM 33.3142 -83.9294 316° Northwest 353 406 11,100 -1,080 Descending Atlanta Center
05:20AM 33.3892 -83.9939 324° Northwest 345 397 9,900 -1,380 Descending Atlanta Center
05:21AM 33.4519 -84.0489 324° Northwest 305 351 8,400 -1,740 Descending Atlanta Center
05:22AM 33.5125 -84.0986 326° Northwest 277 319 6,500 -1,740 Descending Atlanta Center
05:23AM 33.5689 -84.1436 326° Northwest 251 289 5,000 -1,200 Descending Atlanta Center
05:24AM 33.6167 -84.1811 327° Northwest 218 251 4,200 -720 Descending Atlanta Center
05:24AM 33.6500 -84.2000 335° Northwest 189 217 3,900 -480 Descending Atlanta TRACON
05:25AM 33.6500 -84.2500 270° West 179 206 3,500 -720 Descending Atlanta TRACON
05:26AM 33.6500 -84.3000 270° West 180 207 2,700 -900 Descending Atlanta TRACON
05:27AM 33.6500 -84.3667 270° West 145 167 1,800 -900 Descending Atlanta TRACON